Time;durP1;ratioP1;P1;durP2;ratioP2;P2;SDS_P1;SDS_P2;PMS_P1;PMS_P2;Temp;Humidity;BMP_temperature;BMP_pressure;BME280_temperature;BME280_humidity;BME280_pressure;Samples;Min_cycle;Max_cycle;Signal;HPM_P1;HPM_P2
2020/12/02 00:00:33;;;;;;;5.75;4.17;;;;;;;-4.49;90.04;98459.95;1580254;89;21230;-69
2020/12/02 00:03:44;;;;;;;3.12;2.17;;;;;;;-4.63;90.36;98461.54;1581373;89;21219;-69
2020/12/02 00:06:13;;;;;;;4.17;3.70;;;;;;;-4.53;90.35;98457.92;1608082;88;21594;-69
2020/12/02 00:08:47;;;;;;;4.85;2.37;;;;;;;-4.53;90.54;98469.33;1607178;89;21138;-70
2020/12/02 00:11:15;;;;;;;4.28;2.33;;;;;;;-4.51;90.61;98455.33;1607322;88;21182;-70
2020/12/02 00:13:48;;;;;;;9.90;4.83;;;;;;;-4.45;90.63;98463.64;1603404;89;21595;-69
2020/12/02 00:16:40;;;;;;;2.85;2.65;;;;;;;-4.40;90.39;98458.45;1577407;91;21166;-69
2020/12/02 00:19:09;;;;;;;5.00;3.75;;;;;;;-4.36;90.08;98460.84;1628178;88;21222;-69
2020/12/02 00:21:38;;;;;;;2.58;2.37;;;;;;;-4.40;90.01;98459.26;1628102;88;21164;-68
2020/12/02 00:24:06;;;;;;;5.67;4.03;;;;;;;-4.34;90.12;98451.52;1628228;88;21164;-70
2020/12/02 00:26:33;;;;;;;12.50;5.03;;;;;;;-4.39;89.92;98455.86;1628092;88;21188;-68
2020/12/02 00:29:01;;;;;;;2.52;1.87;;;;;;;-4.36;89.70;98457.05;1628230;88;21637;-68
2020/12/02 00:31:29;;;;;;;10.08;4.80;;;;;;;-4.23;89.40;98452.92;1628138;88;21167;-69
2020/12/02 00:33:57;;;;;;;7.83;4.92;;;;;;;-4.36;89.94;98451.17;1628070;88;21617;-69
2020/12/02 00:36:25;;;;;;;10.13;4.85;;;;;;;-4.33;89.69;98444.75;1627961;88;21159;-68
2020/12/02 00:38:52;;;;;;;6.80;3.40;;;;;;;-4.43;89.95;98444.56;1627762;88;21529;-68
2020/12/02 00:41:20;;;;;;;10.55;3.35;;;;;;;-4.39;89.05;98446.16;1627829;88;21341;-68
2020/12/02 00:43:48;;;;;;;8.38;3.33;;;;;;;-4.29;89.30;98453.94;1628033;88;21168;-68
2020/12/02 00:46:17;;;;;;;4.40;3.55;;;;;;;-4.40;89.30;98456.73;1628079;88;21778;-69
2020/12/02 00:48:52;;;;;;;5.80;5.25;;;;;;;-4.28;89.63;98450.97;1628274;88;21195;-68
2020/12/02 00:51:21;;;;;;;8.33;3.47;;;;;;;-4.33;89.86;98458.26;1628067;88;21195;-68
2020/12/02 00:53:50;;;;;;;7.15;4.72;;;;;;;-4.41;89.30;98433.97;1627776;87;21274;-68
2020/12/02 00:56:20;;;;;;;5.05;4.45;;;;;;;-4.45;89.62;98453.50;1605469;88;21612;-68
2020/12/02 00:59:07;;;;;;;3.55;3.25;;;;;;;-4.31;90.03;98449.33;1628330;88;21666;-68
2020/12/02 01:02:14;;;;;;;4.17;2.37;;;;;;;-4.29;89.55;98455.20;1627362;85;21625;-68
2020/12/02 01:04:45;;;;;;;10.10;5.60;;;;;;;-4.24;89.29;98447.02;1628272;88;21843;-68
2020/12/02 01:07:16;;;;;;;6.72;3.33;;;;;;;-4.43;90.19;98447.94;1628195;88;21180;-68
2020/12/02 01:09:44;;;;;;;4.08;2.70;;;;;;;-4.39;89.91;98449.53;1627985;88;21200;-68
2020/12/02 01:12:16;;;;;;;12.10;2.60;;;;;;;-4.42;90.03;98450.88;1627983;88;21707;-68
2020/12/02 01:14:44;;;;;;;8.08;5.62;;;;;;;-4.37;89.55;98450.77;1609727;88;21192;-68
2020/12/02 01:17:13;;;;;;;7.50;6.30;;;;;;;-4.43;89.25;98454.28;1627966;87;21266;-68
2020/12/02 01:19:41;;;;;;;6.45;2.83;;;;;;;-4.52;89.45;98446.92;1628098;88;21141;-68
2020/12/02 01:22:40;;;;;;;4.45;4.05;;;;;;;-4.46;89.38;98451.83;1628061;87;21338;-68
2020/12/02 01:25:23;;;;;;;9.03;3.08;;;;;;;-4.48;89.29;98452.75;1628252;88;21176;-68
2020/12/02 01:28:41;;;;;;;5.45;4.83;;;;;;;-4.52;89.42;98446.92;1628182;88;21613;-68
2020/12/02 01:31:09;;;;;;;3.02;2.72;;;;;;;-4.49;89.14;98448.54;1663529;86;21148;-69
2020/12/02 01:33:36;;;;;;;6.20;2.77;;;;;;;-4.53;89.16;98452.02;1665392;86;21192;-68
2020/12/02 01:36:04;;;;;;;4.85;2.30;;;;;;;-4.45;88.52;98453.93;1665238;86;21180;-68
2020/12/02 01:38:37;;;;;;;3.27;2.95;;;;;;;-4.63;89.29;98456.47;1665644;85;21181;-68
2020/12/02 01:41:06;;;;;;;3.95;2.98;;;;;;;-4.53;89.26;98452.02;1665391;86;21585;-68
2020/12/02 01:43:34;;;;;;;7.65;4.40;;;;;;;-4.56;88.92;98446.61;1665402;86;21147;-68
2020/12/02 01:46:19;;;;;;;8.53;4.25;;;;;;;-4.61;88.89;98443.34;1665451;86;21156;-69
2020/12/02 01:49:07;;;;;;;2.77;2.35;;;;;;;-4.57;88.62;98442.83;1665419;85;21160;-69
2020/12/02 01:51:57;;;;;;;6.37;3.15;;;;;;;-4.58;88.54;98444.96;1666036;85;21132;-69
2020/12/02 01:54:30;;;;;;;4.95;2.27;;;;;;;-4.70;89.01;98447.80;1666659;86;21183;-69
2020/12/02 01:57:12;;;;;;;2.40;2.20;;;;;;;-4.73;88.40;98443.64;1665727;86;21813;-68
2020/12/02 02:00:11;;;;;;;20.12;3.35;;;;;;;-4.73;88.01;98437.31;1665583;86;21279;-68
2020/12/02 02:02:56;;;;;;;9.30;3.37;;;;;;;-4.77;87.94;98431.92;1665543;86;21216;-69
2020/12/02 02:05:43;;;;;;;4.75;2.80;;;;;;;-4.81;88.30;98429.06;1665513;85;21152;-69
2020/12/02 02:08:12;;;;;;;8.18;4.05;;;;;;;-4.82;88.37;98438.36;1665517;86;21157;-69
2020/12/02 02:11:02;;;;;;;5.67;2.60;;;;;;;-4.95;88.93;98437.01;1665393;86;21192;-70
2020/12/02 02:13:56;;;;;;;5.90;3.72;;;;;;;-4.84;88.83;98433.78;1693184;85;21169;-70
2020/12/02 02:16:41;;;;;;;5.20;2.85;;;;;;;-4.95;89.38;98434.47;1727527;83;21190;-71
2020/12/02 02:19:21;;;;;;;3.57;1.90;;;;;;;-4.88;88.79;98433.45;1727880;83;21327;-70
2020/12/02 02:21:56;;;;;;;9.63;3.52;;;;;;;-4.85;88.41;98437.17;1727476;83;21271;-70
2020/12/02 02:24:25;;;;;;;7.03;4.03;;;;;;;-4.85;88.41;98434.64;1727726;83;21324;-70
2020/12/02 02:26:56;;;;;;;6.22;2.45;;;;;;;-4.94;88.90;98430.24;1727473;83;21110;-71
2020/12/02 02:32:29;;;;;;;3.27;3.02;;;;;;;-4.86;88.97;98429.59;1756719;81;21508;-71
2020/12/02 02:34:58;;;;;;;9.00;6.75;;;;;;;-4.85;89.11;98433.80;1757515;81;21547;-71
2020/12/02 02:37:31;;;;;;;5.65;3.52;;;;;;;-5.09;89.81;98429.31;1757452;81;21581;-71
2020/12/02 02:40:03;;;;;;;1.67;1.37;;;;;;;-4.94;89.51;98428.52;1757699;80;21138;-70
2020/12/02 02:42:49;;;;;;;9.63;2.12;;;;;;;-4.86;89.17;98427.06;1757541;81;21183;-70
2020/12/02 02:45:25;;;;;;;3.58;3.22;;;;;;;-4.86;89.14;98430.44;1758265;81;21167;-70
2020/12/02 02:47:58;;;;;;;4.30;3.90;;;;;;;-4.90;89.53;98426.73;1758611;81;21191;-71
2020/12/02 02:50:28;;;;;;;3.60;3.10;;;;;;;-4.80;88.75;98432.84;1757621;80;21588;-70
2020/12/02 02:52:55;;;;;;;2.72;1.35;;;;;;;-4.74;88.19;98429.30;1757645;81;21170;-70
2020/12/02 02:55:25;;;;;;;2.45;2.25;;;;;;;-4.71;87.79;98434.32;1757727;80;21134;-71
2020/12/02 02:57:54;;;;;;;4.08;2.30;;;;;;;-4.80;87.62;98432.00;1757475;81;21134;-70
2020/12/02 03:00:27;;;;;;;3.83;3.12;;;;;;;-4.70;87.68;98430.05;1757786;81;21190;-70
2020/12/02 03:02:57;;;;;;;5.05;4.37;;;;;;;-4.76;87.38;98434.02;1757511;81;21575;-70
2020/12/02 03:05:26;;;;;;;3.27;1.65;;;;;;;-4.83;87.91;98434.61;1757542;81;21516;-70
2020/12/02 03:08:02;;;;;;;4.75;2.92;;;;;;;-4.76;87.41;98432.75;1757519;81;21163;-70
2020/12/02 03:10:34;;;;;;;3.35;2.00;;;;;;;-4.96;87.75;98434.50;1757561;81;21584;-70
2020/12/02 03:13:40;;;;;;;5.22;3.72;;;;;;;-4.92;87.65;98434.83;1757625;81;21139;-70
2020/12/02 03:16:31;;;;;;;2.30;1.45;;;;;;;-5.00;87.77;98432.91;1757610;80;21619;-70
2020/12/02 03:19:09;;;;;;;3.22;1.15;;;;;;;-4.77;87.24;98439.52;1757513;81;21166;-69
2020/12/02 03:21:58;;;;;;;1.90;1.20;;;;;;;-4.76;87.08;98437.82;1757752;80;21140;-69
2020/12/02 03:24:28;;;;;;;2.22;2.08;;;;;;;-4.74;87.00;98440.70;1698333;83;21716;-69
2020/12/02 03:26:57;;;;;;;6.00;2.80;;;;;;;-4.78;87.14;98439.11;1698574;84;21164;-69
2020/12/02 03:29:25;;;;;;;8.65;5.40;;;;;;;-4.89;87.34;98438.55;1698564;84;21515;-69
2020/12/02 03:31:53;;;;;;;2.30;1.82;;;;;;;-5.14;88.36;98428.61;1698415;83;21637;-69
2020/12/02 03:34:22;;;;;;;2.40;1.27;;;;;;;-4.92;87.52;98436.09;1698761;84;21137;-69
2020/12/02 03:36:50;;;;;;;4.83;4.20;;;;;;;-5.08;87.85;98435.62;1671191;84;21153;-69
2020/12/02 03:39:18;;;;;;;2.10;1.87;;;;;;;-5.21;88.44;98431.69;1698654;83;21228;-70
2020/12/02 03:41:47;;;;;;;3.55;2.65;;;;;;;-5.07;88.46;98434.76;1698746;83;21149;-69
2020/12/02 03:44:15;;;;;;;4.35;3.90;;;;;;;-5.03;88.24;98439.31;1698863;84;21148;-69
2020/12/02 03:46:43;;;;;;;3.70;1.27;;;;;;;-5.13;88.25;98437.84;1671338;84;21170;-69
2020/12/02 03:49:11;;;;;;;3.27;2.37;;;;;;;-5.13;88.62;98437.84;1698620;83;21578;-69
2020/12/02 03:51:39;;;;;;;3.40;3.12;;;;;;;-5.09;88.15;98432.68;1698686;83;21283;-68
2020/12/02 03:54:08;;;;;;;2.00;1.22;;;;;;;-5.11;88.09;98442.03;1698640;84;21165;-68
2020/12/02 03:56:36;;;;;;;2.25;0.95;;;;;;;-5.04;87.58;98446.51;1698502;84;21136;-68
2020/12/02 03:59:05;;;;;;;7.90;4.97;;;;;;;-5.09;87.62;98449.56;1698624;83;21164;-68
2020/12/02 04:01:33;;;;;;;2.40;2.22;;;;;;;-5.27;88.23;98449.56;1698535;83;21158;-68
2020/12/02 04:04:01;;;;;;;3.15;1.55;;;;;;;-5.08;87.70;98452.08;1698635;83;21156;-69
2020/12/02 04:06:29;;;;;;;2.17;1.98;;;;;;;-5.07;87.86;98447.85;1698734;84;21220;-68
2020/12/02 04:08:57;;;;;;;5.35;2.80;;;;;;;-5.16;88.10;98451.84;1698532;84;21216;-68
2020/12/02 04:11:25;;;;;;;4.60;3.40;;;;;;;-5.26;88.67;98447.44;1698587;83;21153;-69
2020/12/02 04:13:53;;;;;;;1.90;1.60;;;;;;;-5.44;89.48;98441.07;1698458;83;21590;-69
2020/12/02 04:16:21;;;;;;;5.08;1.85;;;;;;;-5.20;88.50;98439.70;1698553;84;21177;-69
2020/12/02 04:18:49;;;;;;;3.10;2.45;;;;;;;-5.14;88.36;98438.73;1698494;84;21157;-69
2020/12/02 04:21:25;;;;;;;4.50;2.83;;;;;;;-5.09;88.13;98441.55;1698751;84;21160;-69
2020/12/02 04:23:54;;;;;;;11.13;4.67;;;;;;;-5.06;88.18;98441.92;1698822;84;21164;-69
2020/12/02 04:26:25;;;;;;;9.18;5.62;;;;;;;-5.31;88.88;98445.44;1698662;83;21156;-70
2020/12/02 04:28:52;;;;;;;5.53;3.72;;;;;;;-5.37;89.02;98445.13;1698635;84;21148;-70
2020/12/02 04:31:21;;;;;;;4.60;1.42;;;;;;;-5.31;88.55;98453.86;1698786;83;21137;-70
2020/12/02 04:33:48;;;;;;;2.37;1.90;;;;;;;-5.23;88.57;98449.90;1699558;83;21148;-70
2020/12/02 04:36:17;;;;;;;3.00;2.80;;;;;;;-5.17;88.09;98450.20;1698750;84;21177;-69
2020/12/02 04:38:45;;;;;;;1.72;1.55;;;;;;;-5.23;88.44;98448.63;1699638;83;21160;-70
2020/12/02 04:41:17;;;;;;;2.02;1.87;;;;;;;-5.13;88.27;98450.51;1699635;83;21156;-70
2020/12/02 04:44:17;;;;;;;6.95;2.77;;;;;;;-5.13;88.48;98460.63;1699957;83;21287;-70
2020/12/02 04:47:11;;;;;;;3.12;2.83;;;;;;;-5.20;88.50;98456.58;1613606;89;21191;-70
2020/12/02 04:49:37;;;;;;;3.40;1.92;;;;;;;-5.10;88.72;98460.59;1647166;87;21211;-70
2020/12/02 04:52:12;;;;;;;2.83;2.20;;;;;;;-5.14;88.54;98458.56;1646720;87;21640;-70
2020/12/02 04:54:42;;;;;;;4.50;1.55;;;;;;;-5.19;88.93;98458.25;1646894;87;21207;-70
2020/12/02 04:57:10;;;;;;;3.33;2.98;;;;;;;-5.05;88.38;98458.33;1646685;87;21155;-70
2020/12/02 04:59:41;;;;;;;0.60;0.60;;;;;;;-5.03;87.77;98454.08;1645530;87;21183;-70
2020/12/02 05:02:30;;;;;;;6.05;2.40;;;;;;;-4.97;87.35;98458.98;1645586;87;21198;-69
2020/12/02 05:05:00;;;;;;;2.87;2.00;;;;;;;-4.91;86.80;98452.53;1645628;86;21576;-70
2020/12/02 05:07:30;;;;;;;2.92;2.65;;;;;;;-5.12;87.99;98457.24;1645214;86;21247;-69
2020/12/02 05:10:13;;;;;;;4.30;2.05;;;;;;;-5.04;87.90;98457.91;1645833;87;21333;-70
2020/12/02 05:12:46;;;;;;;3.00;2.72;;;;;;;-5.02;88.16;98459.52;1645437;87;21270;-70
2020/12/02 05:15:24;;;;;;;3.35;2.08;;;;;;;-4.95;88.25;98458.54;1645506;87;21235;-68
2020/12/02 05:18:28;;;;;;;5.60;3.35;;;;;;;-5.02;87.78;98459.98;1645756;87;21157;-69
2020/12/02 05:21:22;;;;;;;5.35;4.00;;;;;;;-5.03;87.87;98462.11;1669197;85;21225;-70
2020/12/02 05:24:24;;;;;;;12.20;3.60;;;;;;;-5.08;88.35;98459.67;1668812;84;21235;-69
2020/12/02 05:26:56;;;;;;;6.92;4.28;;;;;;;-5.14;89.13;98456.46;1610432;88;21268;-69
2020/12/02 05:32:30;;;;;;;7.22;3.60;;;;;;;-5.19;88.65;98458.25;1713113;84;21667;-69
2020/12/02 05:35:00;;;;;;;3.47;2.90;;;;;;;-5.20;88.73;98459.11;1704233;83;21194;-69
2020/12/02 05:37:45;;;;;;;5.35;4.42;;;;;;;-5.22;87.85;98457.06;1771952;79;23148;-71
2020/12/02 05:40:18;;;;;;;2.95;2.05;;;;;;;-5.42;88.12;98467.63;1735767;81;21237;-69
2020/12/02 05:42:57;;;;;;;7.30;4.20;;;;;;;-5.34;87.62;98467.86;1742110;82;21164;-69
2020/12/02 05:45:39;;;;;;;2.22;1.80;;;;;;;-5.33;87.62;98468.23;1709854;82;21171;-69
2020/12/02 05:48:13;;;;;;;3.58;2.37;;;;;;;-5.35;88.14;98465.35;1738001;82;21214;-69
2020/12/02 05:50:44;;;;;;;4.15;3.45;;;;;;;-5.34;87.96;98466.59;1729055;82;21135;-71
2020/12/02 05:53:33;;;;;;;10.10;4.50;;;;;;;-5.45;88.41;98472.76;1738772;82;21180;-69
2020/12/02 05:56:10;;;;;;;6.15;3.72;;;;;;;-5.50;88.85;98463.16;1658380;85;21170;-70
2020/12/02 05:58:45;;;;;;;6.90;2.67;;;;;;;-5.55;88.85;98469.57;1704114;84;21140;-71
2020/12/02 06:01:27;;;;;;;2.40;2.20;;;;;;;-5.53;88.71;98467.86;1700150;84;21151;-71
2020/12/02 06:03:59;;;;;;;3.92;3.22;;;;;;;-5.53;88.02;98473.34;1703726;83;21115;-71
2020/12/02 06:06:34;;;;;;;3.47;1.52;;;;;;;-5.57;88.04;98476.80;1696047;84;21695;-70
2020/12/02 06:09:06;;;;;;;2.92;1.60;;;;;;;-5.61;88.94;98480.27;1700989;84;21179;-70
2020/12/02 06:11:37;;;;;;;4.00;2.98;;;;;;;-5.61;88.36;98479.83;1677082;84;21163;-70
2020/12/02 06:14:24;;;;;;;4.17;2.27;;;;;;;-5.64;88.78;98476.08;1683066;84;21171;-71
2020/12/02 06:16:57;;;;;;;1.42;1.27;;;;;;;-5.65;88.58;98474.86;1711975;84;21183;-71
2020/12/02 06:19:33;;;;;;;;;;;;;;;-5.73;89.40;98476.28;1688313;84;21167;-72
2020/12/02 06:22:03;;;;;;;3.22;1.42;;;;;;;-5.67;88.73;98475.30;1697262;84;20184;-75
2020/12/02 06:24:44;;;;;;;4.12;2.75;;;;;;;-5.75;88.57;98472.94;1656789;85;21223;-72
2020/12/02 06:27:32;;;;;;;5.83;3.98;;;;;;;-5.69;88.99;98480.84;1685049;84;21195;-74
2020/12/02 06:30:15;;;;;;;3.60;3.27;;;;;;;-5.72;89.07;98475.42;1642437;84;21195;-73
2020/12/02 06:33:01;;;;;;;3.45;3.02;;;;;;;-5.67;88.86;98481.20;1650716;85;21227;-73
2020/12/02 06:35:30;;;;;;;;;;;;;;;-5.64;88.97;98473.55;1654345;84;21648;-72
2020/12/02 06:38:24;;;;;;;4.12;1.70;;;;;;;-5.73;87.60;98472.91;1672139;84;20160;-72
2020/12/02 06:41:04;;;;;;;2.00;1.90;;;;;;;-5.67;87.68;98476.57;1672105;84;21165;-72
2020/12/02 06:43:36;;;;;;;2.55;2.30;;;;;;;-5.77;88.44;98470.45;1672615;84;21203;-73
2020/12/02 06:47:13;;;;;;;8.15;4.45;;;;;;;-5.65;88.45;98478.23;1645448;86;21208;-72
2020/12/02 06:49:52;;;;;;;2.85;2.65;;;;;;;-5.63;89.10;98475.65;1779940;79;22795;-72
2020/12/02 06:52:32;;;;;;;3.40;2.62;;;;;;;-5.59;88.32;98478.52;1753290;81;21172;-71
2020/12/02 06:55:05;;;;;;;3.08;2.90;;;;;;;-5.56;87.66;98474.69;1753281;82;21168;-71
2020/12/02 06:57:33;;;;;;;8.63;5.62;;;;;;;-5.64;88.16;98480.33;1752740;82;21604;-71
2020/12/02 07:00:05;;;;;;;3.98;3.00;;;;;;;-5.62;88.84;98476.05;1753332;80;21160;-72
2020/12/02 07:02:47;;;;;;;4.35;2.83;;;;;;;-5.63;88.43;98474.38;1753251;81;21149;-71
2020/12/02 07:08:27;;;;;;;3.90;3.02;;;;;;;-5.53;88.32;98478.41;1697009;83;21211;-72
2020/12/02 07:11:14;;;;;;;2.62;2.42;;;;;;;-5.44;88.08;98483.25;1663413;85;21213;-71
2020/12/02 07:13:46;;;;;;;4.42;3.05;;;;;;;-5.34;88.78;98481.78;1635103;86;21234;-71
2020/12/02 07:16:26;;;;;;;3.12;2.87;;;;;;;-5.32;87.10;98485.10;1663354;85;21618;-71
2020/12/02 07:21:56;;;;;;;7.17;5.22;;;;;;;-5.34;87.64;98486.84;1679809;84;21213;-72
2020/12/02 07:24:46;;;;;;;7.05;4.08;;;;;;;-5.50;88.58;98490.98;1716672;83;21203;-70
2020/12/02 07:27:21;;;;;;;26.95;3.50;;;;;;;-5.40;88.77;98489.49;1724565;82;21553;-69
2020/12/02 07:30:11;;;;;;;4.70;2.42;;;;;;;-5.41;88.86;98489.08;1680078;84;21354;-71
2020/12/02 07:32:38;;;;;;;5.53;2.33;;;;;;;-5.34;88.56;98488.11;1715813;83;21164;-70
2020/12/02 07:35:16;;;;;;;3.35;2.52;;;;;;;-5.41;88.21;98487.81;1680335;85;21239;-69
2020/12/02 07:37:45;;;;;;;5.08;2.60;;;;;;;-5.35;88.98;98485.17;1716998;83;21216;-70
2020/12/02 07:40:31;;;;;;;4.53;3.65;;;;;;;-5.35;89.49;98489.40;1680274;85;21281;-64
2020/12/02 07:43:02;;;;;;;6.97;3.20;;;;;;;-5.38;89.70;98497.91;1716732;83;21176;-64
2020/12/02 07:45:33;;;;;;;4.30;2.52;;;;;;;-5.41;89.90;98490.34;1679796;85;21183;-64
2020/12/02 07:48:16;;;;;;;10.13;6.12;;;;;;;-5.31;90.09;98496.06;1679786;85;21211;-64
2020/12/02 07:50:55;;;;;;;10.53;7.12;;;;;;;-5.33;89.15;98488.48;1715273;83;21132;-64
2020/12/02 07:53:41;;;;;;;5.42;4.92;;;;;;;-5.39;89.55;98487.37;1739921;82;21576;-70
2020/12/02 07:56:23;;;;;;;2.27;2.08;;;;;;;-5.24;90.06;98487.89;1708287;83;21191;-67
2020/12/02 07:58:51;;;;;;;4.22;3.83;;;;;;;-4.86;92.48;98484.06;1746383;82;21169;-68
2020/12/02 08:01:40;;;;;;;6.17;3.60;;;;;;;-4.73;91.47;98479.55;1745712;82;21128;-64
2020/12/02 08:04:26;;;;;;;7.70;5.33;;;;;;;-4.82;87.85;98478.05;1745946;82;21239;-65
2020/12/02 08:09:59;;;;;;;6.35;1.92;;;;;;;-4.90;87.60;98479.50;1642871;85;21551;-64
2020/12/02 08:12:31;;;;;;;7.60;4.60;;;;;;;-4.87;86.70;98486.22;1657380;85;21565;-63
2020/12/02 08:15:25;;;;;;;6.53;3.95;;;;;;;-4.97;86.68;98489.38;1657316;86;21148;-65
2020/12/02 08:18:14;;;;;;;8.20;3.72;;;;;;;-5.01;88.10;98492.02;1628498;87;21209;-66
2020/12/02 08:20:49;;;;;;;6.47;5.20;;;;;;;-4.78;87.37;98483.45;1793685;79;22900;-68
2020/12/02 08:23:44;;;;;;;7.20;3.95;;;;;;;-4.80;87.13;98478.87;1727950;83;21167;-68
2020/12/02 08:26:42;;;;;;;8.15;4.47;;;;;;;-4.74;86.46;98483.77;1637886;87;21622;-67
2020/12/02 08:29:11;;;;;;;4.47;2.12;;;;;;;-4.84;86.34;98488.24;1717902;83;21908;-67
2020/12/02 08:31:40;;;;;;;6.03;4.75;;;;;;;-4.74;87.13;98493.08;1718251;83;21206;-68
2020/12/02 08:34:28;;;;;;;3.52;2.45;;;;;;;-4.67;86.72;98488.28;1718423;83;21367;-68
2020/12/02 08:37:23;;;;;;;5.67;4.60;;;;;;;-4.58;85.56;98492.68;1718099;82;21182;-68
2020/12/02 08:39:55;;;;;;;8.18;5.40;;;;;;;-4.76;86.17;98488.49;1717871;82;21165;-68
2020/12/02 08:42:30;;;;;;;3.87;3.17;;;;;;;-4.77;86.79;98496.95;1718092;83;21179;-67
2020/12/02 08:45:23;;;;;;;7.08;5.12;;;;;;;-4.74;85.88;98485.47;1718312;83;21218;-67
2020/12/02 08:47:54;;;;;;;5.67;4.28;;;;;;;-4.92;85.38;98490.13;1717854;83;21170;-67
2020/12/02 08:50:29;;;;;;;4.03;2.22;;;;;;;-4.89;85.86;98487.51;1718133;83;21127;-68
2020/12/02 08:53:00;;;;;;;1.75;1.65;;;;;;;-4.82;85.74;98491.56;1718203;83;21567;-69
2020/12/02 08:55:28;;;;;;;2.25;2.05;;;;;;;-4.80;85.43;98482.67;1718367;83;21230;-69
2020/12/02 08:57:56;;;;;;;8.23;3.58;;;;;;;-4.79;85.30;98486.88;1718897;83;21333;-68
2020/12/02 09:00:25;;;;;;;4.40;3.55;;;;;;;-4.81;85.70;98486.06;1718952;82;21484;-68
2020/12/02 09:02:54;;;;;;;3.42;2.47;;;;;;;-4.70;85.35;98481.57;1718758;83;21289;-68
2020/12/02 09:05:23;;;;;;;2.70;2.10;;;;;;;-4.72;85.23;98480.79;1718830;83;21309;-68
2020/12/02 09:07:52;;;;;;;8.90;4.33;;;;;;;-4.63;85.52;98485.61;1718416;82;21567;-68
2020/12/02 09:10:20;;;;;;;3.05;2.45;;;;;;;-4.76;85.12;98480.46;1717936;83;21127;-68
2020/12/02 09:12:48;;;;;;;7.60;4.12;;;;;;;-4.56;85.30;98478.28;1718027;83;21238;-68
2020/12/02 09:15:16;;;;;;;1.50;1.40;;;;;;;-4.54;84.39;98477.80;1717920;83;21262;-68
2020/12/02 09:17:44;;;;;;;1.77;1.62;;;;;;;-4.21;84.00;98470.22;1718012;83;21246;-68
2020/12/02 09:20:16;;;;;;;2.27;1.62;;;;;;;-4.05;83.17;98462.61;1717787;83;21162;-68
2020/12/02 09:22:44;;;;;;;2.37;2.08;;;;;;;-3.97;83.00;98460.70;1717783;83;21162;-69
2020/12/02 09:25:13;;;;;;;4.97;1.77;;;;;;;-3.89;82.16;98457.52;1717701;83;21132;-67
2020/12/02 09:27:41;;;;;;;6.67;4.50;;;;;;;-3.63;83.03;98453.80;1715432;83;21601;-67
2020/12/02 09:30:10;;;;;;;3.67;2.20;;;;;;;-3.76;82.50;98442.33;1721982;82;21179;-67
2020/12/02 09:32:39;;;;;;;6.40;3.65;;;;;;;-3.76;82.50;98442.33;1710173;84;21548;-67
2020/12/02 09:35:07;;;;;;;8.80;3.37;;;;;;;-3.74;82.93;98441.86;1722210;83;21170;-68
2020/12/02 09:37:37;;;;;;;4.75;3.25;;;;;;;-3.51;82.53;98439.92;1710203;84;21135;-67
2020/12/02 09:40:11;;;;;;;3.50;1.62;;;;;;;-3.38;82.25;98439.50;1721123;83;21223;-67
2020/12/02 09:43:00;;;;;;;7.08;1.98;;;;;;;-3.30;81.47;98441.81;1691839;84;21188;-67
2020/12/02 09:46:10;;;;;;;3.27;1.77;;;;;;;-3.15;81.51;98433.72;1680069;84;21176;-67
2020/12/02 09:48:38;;;;;;;7.05;2.65;;;;;;;-3.05;80.98;98430.04;1709430;83;21171;-67
2020/12/02 09:51:17;;;;;;;7.15;4.45;;;;;;;-2.93;79.62;98425.01;1680249;84;21250;-67
2020/12/02 09:53:48;;;;;;;9.65;7.20;;;;;;;-3.13;80.05;98419.72;1707185;84;22274;-68
2020/12/02 09:56:18;;;;;;;8.33;5.42;;;;;;;-3.28;82.83;98408.77;1709507;84;21167;-68
2020/12/02 09:58:46;;;;;;;5.37;3.65;;;;;;;-2.97;82.15;98418.36;1679782;85;21193;-68
2020/12/02 10:05:06;;;;;;;4.17;3.05;;;;;;;-3.00;80.74;98405.33;1687035;83;21919;-69
2020/12/02 10:07:45;;;;;;;4.37;2.70;;;;;;;-2.76;80.66;98399.86;1637156;85;21230;-70
2020/12/02 10:10:38;;;;;;;4.85;3.65;;;;;;;-2.70;80.48;98389.51;1651117;87;21474;-70
2020/12/02 10:13:36;;;;;;;6.97;4.30;;;;;;;-2.40;80.09;98391.45;1650915;87;21132;-70
2020/12/02 10:16:48;;;;;;;6.15;3.08;;;;;;;-2.58;80.24;98385.29;1646697;85;21194;-70
2020/12/02 10:19:46;;;;;;;3.83;3.40;;;;;;;-2.10;80.12;98370.48;1650958;85;21616;-74
2020/12/02 10:22:59;;;;;;;19.73;7.95;;;;;;;-2.10;80.12;98370.48;1742826;81;21583;-73
2020/12/02 10:26:10;;;;;;;9.45;6.00;;;;;;;-1.96;79.08;98372.08;1711655;83;21634;-72
2020/12/02 10:29:06;;;;;;;4.50;3.25;;;;;;;-2.09;79.73;98361.50;1742799;82;21147;-73
2020/12/02 10:32:07;;;;;;;11.83;3.90;;;;;;;-1.69;78.36;98348.58;1742597;81;21509;-72
2020/12/02 10:34:42;;;;;;;9.95;4.03;;;;;;;-1.69;78.36;98348.58;1681563;84;21210;-73
2020/12/02 10:37:19;;;;;;;6.12;3.37;;;;;;;-1.67;78.33;98353.98;1700220;84;21367;-71
2020/12/02 10:39:47;;;;;;;;;;;;;;;-1.46;77.81;98345.98;1723641;83;21608;-74
2020/12/02 10:42:55;;;;;;;6.75;5.37;;;;;;;-1.41;77.26;98347.08;1672749;86;20265;-74
2020/12/02 10:45:24;;;;;;;13.05;4.62;;;;;;;-1.41;78.22;98341.98;1721123;83;21588;-74
2020/12/02 10:48:09;;;;;;;5.15;3.77;;;;;;;-1.41;76.87;98340.72;1721524;83;21203;-74
2020/12/02 10:50:40;;;;;;;8.43;4.80;;;;;;;-1.19;77.84;98335.98;1719667;83;21159;-74
2020/12/02 10:53:13;;;;;;;9.18;4.72;;;;;;;-0.84;75.49;98331.16;1723328;83;21203;-74
2020/12/02 10:55:42;;;;;;;10.65;4.40;;;;;;;-0.38;74.65;98326.21;1720952;83;21164;-73
2020/12/02 10:58:21;;;;;;;9.70;5.17;;;;;;;-0.22;73.76;98314.45;1720913;82;21168;-73
2020/12/02 11:00:54;;;;;;;11.28;5.40;;;;;;;0.53;73.56;98320.80;1721136;83;21191;-73
2020/12/02 11:03:33;;;;;;;12.10;5.83;;;;;;;0.79;69.58;98316.09;1720809;83;21163;-72
2020/12/02 11:06:18;;;;;;;11.10;5.70;;;;;;;1.21;68.34;98304.66;1721186;83;21168;-75
2020/12/02 11:09:09;;;;;;;10.35;6.08;;;;;;;1.40;66.55;98297.26;1720717;83;21563;-73
2020/12/02 11:12:15;;;;;;;14.83;6.70;;;;;;;2.27;64.21;98288.38;1692667;83;21151;-72
2020/12/02 11:15:46;;;;;;;20.62;11.45;;;;;;;3.38;62.30;98283.79;1823689;77;23076;-72
2020/12/02 11:18:43;;;;;;;25.97;11.55;;;;;;;4.12;61.37;98286.52;1827473;78;21124;-72
2020/12/02 11:21:31;;;;;;;31.02;13.65;;;;;;;4.72;56.98;98282.27;1640981;87;21626;-73
2020/12/02 11:24:24;;;;;;;23.07;10.50;;;;;;;4.83;62.71;98282.39;1632752;86;21654;-74
2020/12/02 11:26:52;;;;;;;17.50;9.38;;;;;;;5.01;54.64;98273.50;1630672;88;21172;-74
2020/12/02 11:29:21;;;;;;;19.35;7.28;;;;;;;4.77;52.44;98278.94;1614597;87;21235;-74
2020/12/02 11:32:02;;;;;;;15.32;8.35;;;;;;;4.97;51.97;98273.33;1642275;87;21182;-73
2020/12/02 11:35:02;;;;;;;12.47;6.42;;;;;;;4.53;53.77;98267.64;1641194;86;21215;-75
2020/12/02 11:37:58;;;;;;;13.05;7.08;;;;;;;4.07;53.82;98271.83;1563765;87;21216;-71
2020/12/02 11:40:31;;;;;;;14.13;6.87;;;;;;;3.42;55.45;98266.00;1630691;87;21639;-72
2020/12/02 11:43:50;;;;;;;27.20;9.85;;;;;;;3.85;55.24;98263.80;1641800;86;21655;-73
2020/12/02 11:46:19;;;;;;;15.95;7.08;;;;;;;3.41;56.30;98265.17;1647150;85;21176;-74
2020/12/02 11:49:00;;;;;;;15.25;7.55;;;;;;;3.56;56.18;98259.12;1656301;87;21223;-73
2020/12/02 11:51:39;;;;;;;12.55;7.53;;;;;;;3.50;56.69;98258.19;1650103;87;21191;-73
2020/12/02 11:54:10;;;;;;;15.18;8.95;;;;;;;4.45;53.46;98253.98;1650504;86;21163;-74
2020/12/02 11:56:48;;;;;;;16.48;8.38;;;;;;;4.54;53.37;98250.02;1650787;87;21258;-73
2020/12/02 11:59:22;;;;;;;13.53;7.67;;;;;;;4.54;53.54;98241.02;1650918;87;21206;-73
2020/12/02 12:05:41;;;;;;;18.35;8.28;;;;;;;3.90;54.93;98247.62;1684603;84;21605;-74
2020/12/02 12:11:34;;;;;;;18.52;7.25;;;;;;;4.42;53.99;98244.36;1712916;82;21140;-74
2020/12/02 12:14:20;;;;;;;17.67;8.03;;;;;;;3.98;54.88;98248.42;1713167;82;21206;-73
2020/12/02 12:17:26;;;;;;;19.77;10.20;;;;;;;4.91;52.02;98242.83;1713331;83;21175;-72
2020/12/02 12:20:12;;;;;;;15.32;8.18;;;;;;;4.54;53.24;98253.87;1713286;83;21178;-73
2020/12/02 12:22:52;;;;;;;16.07;8.08;;;;;;;5.84;49.10;98247.65;1712979;82;21194;-73
2020/12/02 12:28:17;;;;;;;14.15;7.55;;;;;;;3.63;54.24;98248.84;1745066;81;21154;-71
2020/12/02 12:30:45;;;;;;;16.02;8.93;;;;;;;3.97;53.43;98258.36;1746035;81;21158;-73
2020/12/02 12:33:54;;;;;;;11.60;6.55;;;;;;;4.18;53.86;98253.98;1745903;82;21158;-71
2020/12/02 12:36:23;;;;;;;13.35;7.22;;;;;;;4.15;53.54;98250.78;1712720;84;21162;-70
2020/12/02 12:39:10;;;;;;;15.80;8.73;;;;;;;4.20;53.09;98248.77;1712665;84;21567;-71
2020/12/02 12:42:04;;;;;;;17.85;7.53;;;;;;;3.37;55.77;98251.33;1712515;84;21603;-70
2020/12/02 12:44:36;;;;;;;13.93;7.08;;;;;;;3.11;56.77;98248.53;1712717;82;21187;-72
2020/12/02 12:47:30;;;;;;;13.40;6.67;;;;;;;2.58;58.05;98245.21;1712239;84;21171;-73
2020/12/02 12:49:58;;;;;;;15.05;7.08;;;;;;;3.05;56.99;98246.34;1713339;84;21230;-72
2020/12/02 12:52:31;;;;;;;14.60;7.45;;;;;;;3.79;55.91;98241.86;1713263;84;21667;-72